Time;durP1;ratioP1;P1;durP2;ratioP2;P2;SDS_P1;SDS_P2;PMS_P1;PMS_P2;Temp;Humidity;BMP_temperature;BMP_pressure;BME280_temperature;BME280_humidity;BME280_pressure;Samples;Min_cycle;Max_cycle;Signal;HPM_P1;HPM_P2
2022/05/02 00:00:16;;;;;;;9.97;4.73;;;11.20;91.60;;;;;;5054006;28;20672;-59
2022/05/02 00:02:43;;;;;;;6.67;4.47;;;11.20;91.60;;;;;;5053387;28;20240;-58
2022/05/02 00:05:10;;;;;;;7.57;4.43;;;11.20;91.50;;;;;;5053972;28;20312;-59
2022/05/02 00:07:38;;;;;;;7.00;4.13;;;11.20;91.50;;;;;;5053657;28;20209;-59
2022/05/02 00:10:07;;;;;;;8.13;4.60;;;11.20;91.50;;;;;;5053846;28;20228;-58
2022/05/02 00:12:34;;;;;;;6.40;4.13;;;11.20;91.40;;;;;;5053600;28;20213;-61
2022/05/02 00:15:01;;;;;;;11.00;4.47;;;11.20;91.40;;;;;;5053519;28;20268;-58
2022/05/02 00:20:10;;;;;;;9.63;5.03;;;11.10;91.50;;;;;;5052472;28;20590;-59
2022/05/02 00:22:38;;;;;;;7.93;4.50;;;11.10;91.40;;;;;;5053703;28;20255;-58
2022/05/02 00:25:06;;;;;;;8.93;4.13;;;11.10;91.50;;;;;;5053346;28;20232;-59
2022/05/02 00:27:33;;;;;;;8.30;4.40;;;11.10;91.60;;;;;;5053196;28;20209;-59
2022/05/02 00:30:00;;;;;;;7.37;4.57;;;11.10;91.90;;;;;;5053414;28;20201;-59
2022/05/02 00:32:27;;;;;;;10.23;4.63;;;11.10;92.10;;;;;;5053373;28;20224;-60
2022/05/02 00:34:54;;;;;;;10.07;5.13;;;11.00;92.30;;;;;;5052916;28;20221;-58
2022/05/02 00:37:20;;;;;;;9.23;4.73;;;11.00;92.70;;;;;;5053383;28;20544;-59
2022/05/02 00:39:48;;;;;;;8.53;4.80;;;10.90;92.70;;;;;;5053087;28;20201;-58
2022/05/02 00:42:15;;;;;;;8.50;4.80;;;10.90;92.90;;;;;;5053217;28;20225;-58
2022/05/02 00:44:43;;;;;;;7.23;4.40;;;10.80;93.00;;;;;;5053035;28;20212;-59
2022/05/02 00:47:10;;;;;;;10.30;5.07;;;10.80;93.10;;;;;;5053246;28;20209;-58
2022/05/02 00:49:38;;;;;;;8.67;4.80;;;10.70;93.40;;;;;;5053115;28;20573;-58
2022/05/02 00:52:06;;;;;;;8.20;4.73;;;10.70;93.30;;;;;;5053188;28;20671;-59
2022/05/02 00:54:33;;;;;;;9.20;5.53;;;10.60;93.40;;;;;;5052724;28;20228;-59
2022/05/02 00:57:02;;;;;;;8.50;5.30;;;10.60;93.60;;;;;;5052793;28;20206;-58
2022/05/02 00:59:29;;;;;;;8.17;4.70;;;10.60;93.70;;;;;;5052769;28;20213;-59
2022/05/02 01:01:56;;;;;;;9.53;5.17;;;10.50;94.00;;;;;;5052518;28;20597;-59
2022/05/02 01:04:22;;;;;;;8.47;4.53;;;10.50;94.10;;;;;;5052780;28;20204;-58
2022/05/02 01:09:37;;;;;;;9.33;5.07;;;10.30;94.10;;;;;;5052486;28;20189;-59
2022/05/02 01:12:07;;;;;;;8.93;5.40;;;10.30;94.20;;;;;;5052529;28;20207;-59
2022/05/02 01:14:35;;;;;;;8.37;4.63;;;10.20;94.40;;;;;;5052332;28;20228;-59
2022/05/02 01:17:01;;;;;;;10.67;4.73;;;10.10;94.40;;;;;;5052670;28;20398;-59
2022/05/02 01:19:28;;;;;;;8.33;4.93;;;10.10;94.40;;;;;;5052551;28;20201;-58
2022/05/02 01:21:56;;;;;;;7.63;4.83;;;10.10;94.40;;;;;;5052197;28;20694;-59
2022/05/02 01:24:33;;;;;;;7.83;5.00;;;10.10;94.50;;;;;;5052475;28;20197;-58
2022/05/02 01:27:01;;;;;;;9.60;4.50;;;10.00;94.50;;;;;;5052149;28;20190;-59
2022/05/02 01:29:27;;;;;;;8.40;4.80;;;10.10;94.50;;;;;;5052206;28;20201;-58
2022/05/02 01:31:54;;;;;;;8.87;4.77;;;10.00;94.40;;;;;;5051984;28;20209;-58
2022/05/02 01:34:21;;;;;;;7.57;4.70;;;10.00;94.20;;;;;;5052116;28;20209;-58
2022/05/02 01:36:49;;;;;;;8.40;4.80;;;10.00;94.10;;;;;;5051833;28;20210;-58
2022/05/02 01:39:17;;;;;;;8.13;4.67;;;10.00;94.20;;;;;;5052353;28;20208;-59
2022/05/02 01:41:44;;;;;;;9.77;5.37;;;9.90;95.00;;;;;;5051944;28;20733;-58
2022/05/02 01:44:11;;;;;;;7.00;4.47;;;9.80;95.20;;;;;;5051677;28;20213;-59
2022/05/02 01:46:38;;;;;;;7.97;5.17;;;9.80;95.30;;;;;;5051767;28;20244;-58
2022/05/02 01:49:05;;;;;;;10.17;4.83;;;9.80;95.10;;;;;;5052045;28;20205;-58
2022/05/02 01:51:32;;;;;;;7.70;4.97;;;9.80;95.00;;;;;;5051998;28;20208;-58
2022/05/02 01:53:59;;;;;;;10.70;5.60;;;9.80;94.70;;;;;;5052099;28;20296;-59
2022/05/02 01:56:27;;;;;;;9.83;5.13;;;9.80;94.50;;;;;;5051794;28;20255;-59
2022/05/02 01:58:54;;;;;;;10.77;5.37;;;9.80;94.30;;;;;;5051667;28;20471;-59
2022/05/02 02:01:21;;;;;;;8.40;5.17;;;9.80;94.10;;;;;;5052209;28;20205;-58
2022/05/02 02:03:48;;;;;;;9.53;5.10;;;9.80;94.00;;;;;;5051359;28;20295;-58
2022/05/02 02:06:13;;;;;;;9.10;4.63;;;9.80;94.00;;;;;;5051869;28;20556;-58
2022/05/02 02:08:40;;;;;;;6.73;4.43;;;9.70;93.90;;;;;;5051283;28;20197;-59
2022/05/02 02:11:09;;;;;;;6.80;4.20;;;9.80;93.90;;;;;;5051445;28;20209;-58
2022/05/02 02:13:39;;;;;;;10.60;4.73;;;9.80;93.70;;;;;;5051674;28;20670;-59
2022/05/02 02:16:09;;;;;;;8.17;4.23;;;9.80;93.60;;;;;;5051803;28;20225;-59
2022/05/02 02:18:37;;;;;;;7.43;4.40;;;9.70;93.60;;;;;;5051676;28;20186;-58
2022/05/02 02:21:05;;;;;;;7.30;4.40;;;9.70;93.60;;;;;;5051764;28;20259;-59
2022/05/02 02:23:32;;;;;;;7.27;4.10;;;9.70;93.60;;;;;;5051417;28;20209;-60
2022/05/02 02:25:59;;;;;;;7.10;3.90;;;9.70;93.70;;;;;;5051717;28;20201;-59
2022/05/02 02:28:26;;;;;;;7.87;4.33;;;9.70;93.60;;;;;;5051558;28;20212;-59
2022/05/02 02:30:54;;;;;;;6.27;4.13;;;9.70;93.50;;;;;;5051832;28;20213;-62
2022/05/02 02:33:21;;;;;;;7.80;3.90;;;9.70;93.40;;;;;;5051650;28;20211;-57
2022/05/02 02:35:48;;;;;;;13.43;7.20;;;9.70;93.40;;;;;;5051446;28;20221;-59
2022/05/02 02:38:15;;;;;;;11.63;6.10;;;9.70;93.30;;;;;;5051516;28;20205;-59
2022/05/02 02:40:42;;;;;;;8.47;5.37;;;9.80;93.30;;;;;;5052667;28;20201;-59
2022/05/02 02:43:10;;;;;;;7.23;4.67;;;9.80;93.20;;;;;;5055427;28;20205;-59
2022/05/02 02:45:37;;;;;;;8.23;4.73;;;9.80;93.10;;;;;;5055621;28;20223;-58
2022/05/02 02:48:05;;;;;;;6.73;3.90;;;9.80;93.40;;;;;;5055251;28;20216;-58
2022/05/02 02:50:32;;;;;;;8.17;4.47;;;9.80;93.00;;;;;;5055274;28;20667;-59
2022/05/02 02:52:59;;;;;;;7.13;4.00;;;9.80;93.00;;;;;;5055183;28;20225;-59
2022/05/02 02:55:26;;;;;;;7.60;3.63;;;9.80;92.90;;;;;;5055199;28;20217;-58
2022/05/02 02:57:53;;;;;;;9.67;4.43;;;9.80;92.90;;;;;;5055503;28;20667;-59
2022/05/02 03:00:21;;;;;;;6.57;3.90;;;9.80;93.10;;;;;;5054949;28;20205;-59
2022/05/02 03:02:49;;;;;;;9.23;4.33;;;9.80;93.00;;;;;;5055179;28;20229;-59
2022/05/02 03:08:02;;;;;;;7.53;4.17;;;9.80;93.30;;;;;;5055039;28;20567;-59
2022/05/02 03:10:28;;;;;;;5.93;3.83;;;9.80;93.60;;;;;;5054943;28;20205;-59
2022/05/02 03:12:55;;;;;;;7.43;3.73;;;9.80;93.20;;;;;;5054993;28;20549;-59
2022/05/02 03:15:22;;;;;;;7.30;4.20;;;9.80;93.10;;;;;;5054336;28;20226;-59
2022/05/02 03:17:49;;;;;;;6.70;3.70;;;9.80;93.10;;;;;;5054896;28;20694;-59
2022/05/02 03:20:17;;;;;;;9.10;4.20;;;9.80;93.10;;;;;;5054447;28;20220;-58
2022/05/02 03:22:44;;;;;;;6.97;3.87;;;9.80;93.20;;;;;;5054783;28;20213;-58
2022/05/02 03:25:11;;;;;;;6.87;4.10;;;9.80;93.20;;;;;;5054366;28;20201;-59
2022/05/02 03:27:38;;;;;;;5.83;3.93;;;9.80;93.30;;;;;;5054427;28;20213;-59
2022/05/02 03:30:06;;;;;;;7.10;4.10;;;9.80;93.40;;;;;;5054332;28;20212;-58
2022/05/02 03:32:33;;;;;;;8.70;4.87;;;9.80;93.70;;;;;;5054397;28;20619;-59
2022/05/02 03:35:00;;;;;;;8.20;5.00;;;9.90;93.80;;;;;;5054436;28;20236;-58
2022/05/02 03:37:28;;;;;;;8.70;4.50;;;9.90;93.90;;;;;;5054375;28;20597;-58
2022/05/02 03:39:54;;;;;;;8.00;4.60;;;9.80;93.90;;;;;;5054178;28;20209;-60
2022/05/02 03:42:21;;;;;;;6.30;4.43;;;9.90;94.60;;;;;;5053839;28;20240;-60
2022/05/02 03:44:48;;;;;;;8.93;4.63;;;9.90;94.70;;;;;;5054361;28;20212;-60
2022/05/02 03:47:15;;;;;;;9.27;4.90;;;9.90;94.60;;;;;;5054257;28;20555;-58
2022/05/02 03:49:41;;;;;;;11.07;5.70;;;9.90;94.80;;;;;;5054183;28;20544;-58
2022/05/02 03:52:08;;;;;;;7.67;5.17;;;10.00;94.80;;;;;;5052766;28;20202;-60
2022/05/02 03:54:36;;;;;;;9.33;5.40;;;10.00;94.90;;;;;;5054167;28;20209;-59
2022/05/02 03:57:04;;;;;;;8.30;5.37;;;10.00;94.80;;;;;;5053836;28;20221;-58
2022/05/02 03:59:30;;;;;;;8.83;5.40;;;10.10;95.00;;;;;;5053861;28;20216;-58
2022/05/02 04:01:57;;;;;;;10.47;5.20;;;10.10;95.00;;;;;;5053617;28;20237;-59
2022/05/02 04:04:24;;;;;;;8.60;4.90;;;10.10;95.00;;;;;;5053767;28;20656;-58
2022/05/02 04:06:51;;;;;;;13.73;5.37;;;10.20;95.10;;;;;;5053509;28;20205;-60
2022/05/02 04:09:17;;;;;;;7.00;4.70;;;10.30;95.20;;;;;;5053639;28;20203;-59
2022/05/02 04:11:46;;;;;;;8.43;5.03;;;10.40;95.60;;;;;;5053615;28;20218;-58
2022/05/02 04:14:12;;;;;;;7.10;4.57;;;10.60;95.60;;;;;;5053525;28;20205;-59
2022/05/02 04:16:39;;;;;;;7.00;3.77;;;10.70;95.20;;;;;;5053629;28;20221;-59
2022/05/02 04:19:06;;;;;;;7.33;3.80;;;10.80;94.70;;;;;;5053446;28;20694;-60
2022/05/02 04:21:33;;;;;;;8.37;3.90;;;11.00;94.50;;;;;;5053646;28;20212;-59
2022/05/02 04:24:00;;;;;;;5.23;3.30;;;11.10;94.10;;;;;;5053684;28;20565;-59
2022/05/02 04:26:27;;;;;;;5.90;3.47;;;11.20;93.70;;;;;;5053470;28;20563;-59
2022/05/02 04:28:55;;;;;;;5.43;3.60;;;11.20;93.30;;;;;;5053557;28;20205;-59
2022/05/02 04:31:22;;;;;;;5.70;3.40;;;11.30;92.90;;;;;;5053393;28;20209;-59
2022/05/02 04:33:49;;;;;;;7.13;3.13;;;11.40;92.70;;;;;;5053543;28;20201;-60
2022/05/02 04:36:16;;;;;;;5.27;3.23;;;11.50;92.70;;;;;;5053350;28;20225;-58
2022/05/02 04:38:43;;;;;;;5.60;3.20;;;11.60;92.60;;;;;;5053208;28;20305;-59
2022/05/02 04:41:13;;;;;;;6.87;3.70;;;11.70;92.40;;;;;;5052770;28;20229;-59
2022/05/02 04:43:40;;;;;;;6.20;3.00;;;11.80;92.40;;;;;;5053421;28;20621;-60
2022/05/02 04:46:08;;;;;;;5.20;3.30;;;11.90;92.30;;;;;;5052882;28;20209;-61
2022/05/02 04:48:35;;;;;;;5.33;3.70;;;11.90;92.10;;;;;;5053136;28;20205;-59
2022/05/02 04:51:02;;;;;;;5.13;3.27;;;12.00;91.90;;;;;;5052902;28;20202;-59
2022/05/02 04:53:29;;;;;;;4.57;2.97;;;12.10;91.90;;;;;;5052997;28;20209;-58
2022/05/02 04:55:56;;;;;;;5.30;2.83;;;12.20;91.80;;;;;;5053062;28;20233;-59
2022/05/02 04:58:22;;;;;;;6.23;3.10;;;12.30;91.70;;;;;;5052356;28;20209;-58
2022/05/02 05:00:49;;;;;;;5.07;2.77;;;12.30;91.50;;;;;;5052680;28;20763;-59
2022/05/02 05:03:17;;;;;;;4.53;3.00;;;12.40;91.60;;;;;;5051698;28;20726;-59
2022/05/02 05:05:44;;;;;;;4.30;2.73;;;12.50;91.50;;;;;;5053285;28;20197;-60
2022/05/02 05:08:11;;;;;;;4.93;2.80;;;12.60;91.60;;;;;;5052881;28;20256;-59
2022/05/02 05:10:47;;;;;;;3.30;2.30;;;12.70;91.60;;;;;;5052743;28;20212;-60
2022/05/02 05:13:18;;;;;;;3.80;2.30;;;12.80;91.50;;;;;;5052395;28;20205;-60
2022/05/02 05:18:57;;;;;;;8.57;4.47;;;13.00;91.20;;;;;;5052547;28;20177;-59
2022/05/02 05:21:32;;;;;;;4.50;3.03;;;13.10;91.10;;;;;;5052612;28;20551;-61
2022/05/02 05:24:24;;;;;;;3.60;2.40;;;13.20;91.10;;;;;;5052358;28;20555;-59
2022/05/02 05:27:00;;;;;;;4.83;3.10;;;13.30;90.90;;;;;;5052517;28;20190;-59
2022/05/02 05:29:35;;;;;;;6.20;3.00;;;13.30;90.30;;;;;;5052137;28;20193;-59
2022/05/02 05:32:15;;;;;;;7.17;2.60;;;13.40;90.20;;;;;;5051926;28;20193;-59
2022/05/02 05:34:51;;;;;;;4.73;2.50;;;13.50;89.40;;;;;;5052326;28;20662;-59
2022/05/02 05:37:53;;;;;;;4.43;2.60;;;13.60;89.30;;;;;;5052012;28;20663;-58
2022/05/02 05:40:25;;;;;;;5.70;2.43;;;13.70;89.00;;;;;;5051934;28;20217;-59
2022/05/02 05:43:24;;;;;;;3.43;2.40;;;13.80;89.00;;;;;;5052160;28;20252;-60
2022/05/02 05:46:07;;;;;;;4.17;2.20;;;13.80;88.80;;;;;;5045368;28;20205;-58
2022/05/02 05:48:47;;;;;;;3.93;2.20;;;13.90;89.00;;;;;;5052257;28;20236;-58
2022/05/02 05:51:33;;;;;;;3.60;2.20;;;14.00;88.80;;;;;;5052251;28;20608;-59
2022/05/02 05:54:11;;;;;;;3.33;2.10;;;14.10;87.40;;;;;;5051565;28;20207;-60
2022/05/02 05:56:50;;;;;;;3.70;2.10;;;14.20;87.50;;;;;;5052002;28;20224;-60
2022/05/02 05:59:27;;;;;;;3.97;2.30;;;14.30;87.70;;;;;;5051901;28;20201;-58
2022/05/02 06:02:08;;;;;;;3.00;2.10;;;14.40;87.90;;;;;;5051297;28;20243;-59
2022/05/02 06:04:37;;;;;;;3.60;2.00;;;14.50;87.90;;;;;;5051606;28;20189;-59
2022/05/02 06:07:06;;;;;;;3.97;2.50;;;14.60;87.30;;;;;;5051818;28;20460;-59
2022/05/02 06:09:33;;;;;;;4.10;2.10;;;14.60;86.60;;;;;;5052038;28;20205;-58
2022/05/02 06:12:02;;;;;;;7.30;2.47;;;14.70;86.60;;;;;;5051307;28;20213;-60
2022/05/02 06:14:31;;;;;;;4.50;2.37;;;14.80;86.50;;;;;;5051190;28;20227;-61
2022/05/02 06:19:45;;;;;;;4.80;2.50;;;14.90;86.40;;;;;;5051580;28;20219;-60
2022/05/02 06:22:17;;;;;;;6.03;2.83;;;15.00;86.30;;;;;;5051639;28;20212;-59
2022/05/02 06:24:46;;;;;;;5.60;2.67;;;15.10;85.60;;;;;;5052954;28;20189;-57
2022/05/02 06:27:14;;;;;;;3.37;2.10;;;15.10;86.10;;;;;;5051400;28;20201;-58
2022/05/02 06:29:42;;;;;;;5.77;2.50;;;15.20;86.10;;;;;;5051508;28;20209;-58
2022/05/02 06:32:11;;;;;;;3.83;2.17;;;15.30;86.50;;;;;;5051143;28;20202;-58
2022/05/02 06:34:40;;;;;;;8.43;2.23;;;15.40;86.00;;;;;;5051441;28;20205;-57
2022/05/02 06:37:26;;;;;;;4.93;2.30;;;15.50;85.70;;;;;;5051255;28;20283;-58
2022/05/02 06:40:04;;;;;;;2.80;2.00;;;15.50;85.20;;;;;;5051245;28;20654;-59
2022/05/02 06:42:36;;;;;;;3.50;2.13;;;15.60;86.10;;;;;;5051391;28;20201;-58
2022/05/02 06:45:10;;;;;;;2.57;1.80;;;15.70;84.60;;;;;;5051226;28;20582;-57
2022/05/02 06:47:49;;;;;;;3.47;2.00;;;15.80;84.00;;;;;;5051169;28;20182;-57
2022/05/02 06:50:19;;;;;;;4.20;2.40;;;15.90;84.30;;;;;;5051249;28;20200;-59
2022/05/02 06:53:04;;;;;;;2.53;2.00;;;15.90;83.80;;;;;;5051195;28;20206;-59
2022/05/02 06:55:37;;;;;;;2.67;2.00;;;16.00;83.90;;;;;;5051232;28;20190;-58
2022/05/02 06:58:24;;;;;;;3.90;1.90;;;16.00;83.20;;;;;;5050654;28;20214;-58
2022/05/02 07:00:58;;;;;;;5.03;2.07;;;16.10;83.10;;;;;;5051267;28;20655;-57
2022/05/02 07:03:49;;;;;;;2.73;1.77;;;16.20;83.10;;;;;;5050890;28;20244;-57
2022/05/02 07:06:27;;;;;;;2.73;1.80;;;16.30;82.20;;;;;;5051049;28;20646;-58
2022/05/02 07:08:58;;;;;;;3.20;2.20;;;16.40;82.50;;;;;;5050817;28;20199;-57
2022/05/02 07:11:37;;;;;;;2.50;1.80;;;16.50;82.20;;;;;;5050788;28;20194;-58
2022/05/02 07:14:10;;;;;;;1.90;1.60;;;16.50;80.00;;;;;;5050892;28;20283;-57
2022/05/02 07:16:43;;;;;;;4.07;1.90;;;16.60;80.00;;;;;;5051107;28;20304;-59
2022/05/02 07:19:23;;;;;;;2.30;1.90;;;16.60;80.00;;;;;;5050485;28;20189;-58
2022/05/02 07:21:56;;;;;;;2.20;1.70;;;16.70;79.20;;;;;;5050412;28;20567;-58
2022/05/02 07:24:47;;;;;;;3.00;2.00;;;16.80;78.30;;;;;;5050884;28;20633;-58
2022/05/02 07:27:20;;;;;;;2.20;1.67;;;16.90;78.50;;;;;;5052400;28;20186;-58
2022/05/02 07:29:50;;;;;;;5.20;2.00;;;16.90;78.40;;;;;;5054563;28;20190;-60
2022/05/02 07:32:18;;;;;;;3.87;1.97;;;16.90;78.20;;;;;;5053871;28;20212;-57
2022/05/02 07:34:49;;;;;;;2.77;1.80;;;17.00;78.10;;;;;;5053816;28;20217;-57
2022/05/02 07:37:21;;;;;;;2.10;1.50;;;17.00;78.00;;;;;;5054311;28;20701;-57
2022/05/02 07:39:49;;;;;;;2.70;1.73;;;17.10;77.60;;;;;;5054139;28;20719;-58
2022/05/02 07:42:18;;;;;;;2.20;1.60;;;17.10;77.70;;;;;;5054172;28;20556;-58
2022/05/02 07:44:47;;;;;;;2.37;1.70;;;17.20;76.70;;;;;;5054174;28;20578;-57
2022/05/02 07:47:16;;;;;;;2.87;1.83;;;17.20;76.00;;;;;;5054218;28;20208;-57
2022/05/02 07:49:47;;;;;;;3.00;1.70;;;17.20;76.00;;;;;;5054080;28;20211;-57
2022/05/02 07:52:18;;;;;;;2.87;1.67;;;17.30;75.50;;;;;;5054176;28;20748;-58
2022/05/02 07:54:47;;;;;;;2.33;1.77;;;17.40;74.80;;;;;;5053937;28;20191;-58
2022/05/02 07:57:16;;;;;;;2.83;1.60;;;17.40;74.20;;;;;;5053755;28;20226;-59
2022/05/02 07:59:50;;;;;;;16.23;2.90;;;17.40;73.60;;;;;;5053661;28;20203;-57
2022/05/02 08:02:17;;;;;;;3.63;1.90;;;17.40;72.90;;;;;;5053640;28;20241;-58
2022/05/02 08:04:44;;;;;;;3.27;2.10;;;17.40;73.40;;;;;;5053875;28;20205;-57
2022/05/02 08:07:14;;;;;;;2.60;2.00;;;17.50;73.80;;;;;;5053879;28;20207;-56
2022/05/02 08:10:15;;;;;;;3.03;2.17;;;17.50;73.40;;;;;;5053670;28;20549;-58
2022/05/02 08:12:53;;;;;;;4.67;2.30;;;17.60;73.90;;;;;;5053621;28;20248;-59
2022/05/02 08:15:24;;;;;;;3.67;2.17;;;17.60;73.80;;;;;;5053742;28;20206;-58
2022/05/02 08:18:13;;;;;;;3.10;1.90;;;17.70;74.00;;;;;;5053230;28;20218;-59
2022/05/02 08:20:47;;;;;;;3.67;2.10;;;17.70;73.40;;;;;;5053533;28;20683;-59
2022/05/02 08:29:19;;;;;;;3.57;2.00;;;17.70;71.80;;;;;;5053305;28;20190;-61
2022/05/02 08:31:53;;;;;;;3.07;1.90;;;17.80;73.00;;;;;;5053364;28;20200;-57
2022/05/02 08:34:36;;;;;;;3.73;2.00;;;17.80;73.30;;;;;;5053579;28;20195;-59
2022/05/02 08:37:17;;;;;;;2.80;2.10;;;17.90;74.20;;;;;;5053330;28;20549;-58
2022/05/02 08:39:54;;;;;;;2.87;1.80;;;18.00;74.50;;;;;;5052049;28;20201;-58
2022/05/02 08:43:02;;;;;;;4.50;2.00;;;18.00;73.10;;;;;;5053611;28;20197;-60
2022/05/02 08:45:51;;;;;;;5.07;1.90;;;18.10;72.80;;;;;;5053518;28;20566;-59
2022/05/02 08:48:39;;;;;;;2.47;2.00;;;18.10;72.40;;;;;;5053199;28;20193;-57
2022/05/02 08:51:44;;;;;;;2.77;1.60;;;18.20;73.00;;;;;;5053210;28;20306;-59
2022/05/02 08:54:44;;;;;;;4.07;2.00;;;18.20;72.80;;;;;;5052960;28;20213;-59
2022/05/02 08:57:53;;;;;;;3.27;2.00;;;18.30;72.30;;;;;;5052848;28;20214;-58
2022/05/02 09:00:29;;;;;;;3.30;2.10;;;18.30;71.20;;;;;;5052958;28;20195;-58
2022/05/02 09:03:40;;;;;;;2.73;1.70;;;18.30;69.30;;;;;;5052600;28;20386;-59
2022/05/02 09:06:44;;;;;;;3.00;2.00;;;18.30;69.90;;;;;;5008836;28;20206;-59
2022/05/02 09:09:37;;;;;;;2.03;1.70;;;18.40;70.50;;;;;;5052371;28;20207;-60
2022/05/02 09:12:36;;;;;;;3.13;1.90;;;18.40;70.40;;;;;;5052707;28;20545;-58
2022/05/02 09:15:14;;;;;;;3.03;1.77;;;18.50;69.30;;;;;;5052641;28;20200;-58
2022/05/02 09:18:20;;;;;;;3.00;2.03;;;18.50;69.50;;;;;;5052287;28;20741;-58
2022/05/02 09:20:56;;;;;;;6.10;1.90;;;18.50;70.50;;;;;;5052390;28;20208;-58
2022/05/02 09:24:08;;;;;;;3.70;1.90;;;18.60;71.00;;;;;;5052127;28;20202;-58
2022/05/02 09:26:56;;;;;;;3.23;1.93;;;18.70;71.20;;;;;;5052424;28;20502;-59
2022/05/02 09:29:56;;;;;;;3.03;1.97;;;18.70;70.30;;;;;;5052132;28;20533;-61
2022/05/02 09:32:39;;;;;;;2.93;2.00;;;18.90;70.60;;;;;;5052244;28;20212;-60
2022/05/02 09:35:11;;;;;;;2.40;1.80;;;18.90;71.10;;;;;;5052140;28;20225;-60
2022/05/02 09:37:41;;;;;;;3.80;1.70;;;19.00;70.60;;;;;;5052282;28;20228;-60
2022/05/02 09:40:12;;;;;;;2.10;1.80;;;19.10;70.00;;;;;;5051865;28;20223;-58
2022/05/02 09:42:51;;;;;;;2.30;1.60;;;19.10;68.60;;;;;;5052151;28;20193;-58
2022/05/02 09:52:03;;;;;;;2.40;1.90;;;19.30;66.80;;;;;;5037756;28;20570;-58
2022/05/02 09:57:33;;;;;;;3.47;1.87;;;19.10;64.80;;;;;;5051714;28;20209;-59
2022/05/02 10:02:48;;;;;;;2.20;1.73;;;19.10;67.60;;;;;;5050293;28;20606;-59
2022/05/02 10:05:23;;;;;;;3.30;2.13;;;19.20;67.90;;;;;;5051741;28;20270;-59
2022/05/02 10:08:09;;;;;;;2.50;2.13;;;19.20;67.40;;;;;;5051480;28;20197;-57
2022/05/02 10:10:47;;;;;;;2.80;1.70;;;19.20;66.60;;;;;;5051530;28;20204;-57
2022/05/02 10:13:26;;;;;;;4.37;1.97;;;19.30;66.50;;;;;;5051651;28;20204;-59
2022/05/02 10:16:05;;;;;;;3.03;1.83;;;19.20;66.30;;;;;;5051820;28;20198;-58
2022/05/02 10:18:47;;;;;;;2.47;2.00;;;19.20;66.90;;;;;;5051606;28;20216;-58
2022/05/02 10:21:28;;;;;;;2.57;1.90;;;19.20;67.10;;;;;;5051417;28;20192;-59
2022/05/02 10:24:10;;;;;;;2.90;1.60;;;19.20;67.30;;;;;;5051475;28;20192;-59
2022/05/02 10:26:44;;;;;;;5.70;2.03;;;19.30;65.60;;;;;;5051356;28;20192;-59
2022/05/02 10:29:36;;;;;;;2.77;1.70;;;19.20;65.30;;;;;;5051753;28;20223;-58
2022/05/02 10:32:05;;;;;;;3.07;2.00;;;19.20;65.90;;;;;;5051271;28;20185;-60
2022/05/02 10:34:33;;;;;;;2.70;1.90;;;19.20;66.30;;;;;;5051480;28;20204;-59
2022/05/02 10:37:04;;;;;;;2.57;1.90;;;19.30;67.20;;;;;;5051277;28;20647;-58
2022/05/02 10:39:46;;;;;;;2.80;2.00;;;19.40;67.10;;;;;;5051358;28;20220;-58
2022/05/02 10:42:17;;;;;;;2.60;1.93;;;19.40;66.90;;;;;;5051190;28;20188;-57
2022/05/02 10:44:51;;;;;;;7.33;2.80;;;19.50;66.90;;;;;;5051267;28;20193;-58
2022/05/02 10:47:20;;;;;;;4.07;2.20;;;19.60;65.60;;;;;;5051345;28;20186;-58
2022/05/02 10:50:08;;;;;;;5.53;2.43;;;19.60;66.10;;;;;;5051248;28;20206;-57
2022/05/02 10:52:55;;;;;;;2.43;1.90;;;19.70;67.40;;;;;;5051263;28;20194;-59
2022/05/02 10:55:26;;;;;;;1.90;1.70;;;19.80;64.60;;;;;;5051193;28;20246;-58
2022/05/02 10:57:56;;;;;;;2.40;2.10;;;19.80;64.70;;;;;;5050912;28;20209;-59
2022/05/02 11:00:24;;;;;;;3.23;2.07;;;19.80;64.40;;;;;;5050890;28;20212;-58
2022/05/02 11:03:06;;;;;;;3.60;2.23;;;19.80;64.80;;;;;;5053698;28;20237;-58
2022/05/02 11:05:37;;;;;;;4.33;2.20;;;19.90;64.70;;;;;;5054816;28;20196;-58
2022/05/02 11:08:09;;;;;;;3.70;1.70;;;19.90;64.90;;;;;;5054726;28;20196;-57
2022/05/02 11:10:43;;;;;;;11.93;2.10;;;19.90;64.90;;;;;;5054985;28;20731;-59
2022/05/02 11:13:24;;;;;;;2.87;1.93;;;19.90;65.20;;;;;;5054912;28;20198;-58
2022/05/02 11:16:07;;;;;;;3.97;2.10;;;20.00;65.40;;;;;;5054978;28;20550;-59
2022/05/02 11:21:45;;;;;;;2.63;1.70;;;20.00;64.90;;;;;;5054477;28;20654;-58
2022/05/02 11:24:40;;;;;;;3.80;2.10;;;19.90;63.80;;;;;;5054508;28;20223;-58
2022/05/02 11:27:22;;;;;;;2.13;1.80;;;19.90;63.80;;;;;;5054254;28;20253;-59
2022/05/02 11:30:00;;;;;;;3.37;2.00;;;19.90;64.70;;;;;;5054656;28;20200;-61
2022/05/02 11:32:37;;;;;;;3.50;2.10;;;20.00;64.10;;;;;;5054236;28;20190;-61
2022/05/02 11:35:12;;;;;;;4.07;2.23;;;19.90;62.80;;;;;;5054260;28;20193;-58
2022/05/02 11:37:46;;;;;;;3.23;1.80;;;20.10;63.00;;;;;;5054672;28;20220;-59
2022/05/02 11:40:13;;;;;;;2.63;2.00;;;20.20;63.80;;;;;;5054167;28;20237;-59
2022/05/02 11:42:43;;;;;;;3.93;1.97;;;20.30;63.00;;;;;;5054230;28;20578;-58
2022/05/02 11:45:13;;;;;;;2.73;1.90;;;20.30;62.70;;;;;;5054393;28;20671;-59
2022/05/02 11:48:07;;;;;;;3.30;2.00;;;20.40;63.50;;;;;;5054173;28;20624;-57
2022/05/02 11:50:44;;;;;;;5.10;2.03;;;20.50;64.10;;;;;;5050793;28;20210;-59
2022/05/02 11:53:14;;;;;;;2.73;1.90;;;20.60;64.20;;;;;;5053962;28;20580;-58
2022/05/02 11:55:42;;;;;;;2.97;1.80;;;20.60;63.30;;;;;;5054028;28;20191;-58
2022/05/02 11:58:21;;;;;;;2.63;2.00;;;20.60;63.80;;;;;;5053793;28;20223;-58
2022/05/02 12:00:53;;;;;;;13.70;2.10;;;20.60;64.30;;;;;;5053890;28;20192;-59
2022/05/02 12:03:24;;;;;;;5.77;2.37;;;20.50;62.60;;;;;;5053331;28;20242;-58
2022/05/02 12:05:52;;;;;;;4.70;2.27;;;20.50;62.50;;;;;;5053986;28;20596;-57
2022/05/02 12:08:25;;;;;;;10.27;2.10;;;20.50;62.50;;;;;;5053711;28;20296;-59
2022/05/02 12:11:05;;;;;;;4.00;1.90;;;20.60;63.00;;;;;;5053771;28;20197;-57
2022/05/02 12:13:36;;;;;;;2.53;1.80;;;20.60;62.80;;;;;;5052699;28;20718;-58
2022/05/02 12:16:09;;;;;;;2.50;1.83;;;20.60;62.20;;;;;;5053379;28;20194;-59
2022/05/02 12:18:41;;;;;;;3.33;1.70;;;20.70;61.20;;;;;;5052958;28;20233;-57
2022/05/02 12:21:09;;;;;;;2.40;1.87;;;20.80;61.90;;;;;;5053465;28;20205;-59
2022/05/02 12:23:41;;;;;;;3.80;2.27;;;20.80;61.90;;;;;;5053293;28;20268;-58
2022/05/02 12:26:16;;;;;;;2.07;1.80;;;20.80;61.40;;;;;;5053058;28;20282;-58
2022/05/02 12:28:45;;;;;;;2.40;1.77;;;20.90;62.00;;;;;;5053145;28;20183;-57
2022/05/02 12:31:18;;;;;;;4.30;2.03;;;20.90;61.70;;;;;;5053387;28;20759;-58
2022/05/02 12:33:50;;;;;;;3.40;1.80;;;20.90;61.60;;;;;;5053730;28;20197;-59
2022/05/02 12:36:18;;;;;;;7.53;2.30;;;20.90;60.70;;;;;;5052920;28;20204;-59
2022/05/02 12:38:50;;;;;;;6.17;2.40;;;20.90;60.00;;;;;;5052888;28;20781;-62
2022/05/02 12:41:24;;;;;;;3.70;2.07;;;20.80;60.90;;;;;;5052882;28;20283;-60
2022/05/02 12:43:54;;;;;;;4.37;1.80;;;20.70;61.20;;;;;;5053052;28;20187;-59
2022/05/02 12:46:32;;;;;;;3.90;2.00;;;20.60;61.10;;;;;;5052891;28;20697;-59
2022/05/02 12:49:04;;;;;;;3.03;2.00;;;20.50;61.70;;;;;;5052573;28;20228;-58
2022/05/02 12:51:32;;;;;;;3.60;1.90;;;20.50;61.30;;;;;;5052855;28;20194;-58
2022/05/02 12:54:13;;;;;;;3.83;2.17;;;20.50;60.90;;;;;;5052841;28;20201;-58
2022/05/02 13:02:38;;;;;;;4.60;2.23;;;20.70;61.10;;;;;;5052515;28;20244;-59
2022/05/02 13:05:09;;;;;;;3.93;1.90;;;20.70;60.70;;;;;;5052914;28;20596;-58
2022/05/02 13:07:44;;;;;;;3.43;1.87;;;20.70;59.90;;;;;;5052760;28;20199;-58
2022/05/02 13:10:17;;;;;;;3.57;1.90;;;20.60;60.40;;;;;;5052495;28;20692;-58
2022/05/02 13:12:57;;;;;;;2.53;2.07;;;20.50;59.80;;;;;;5052336;28;20210;-58
2022/05/02 13:15:25;;;;;;;2.20;1.70;;;20.40;59.90;;;;;;5052291;28;20193;-58
2022/05/02 13:17:58;;;;;;;4.37;2.00;;;20.40;60.40;;;;;;5052018;28;20229;-58
2022/05/02 13:20:28;;;;;;;4.00;2.00;;;20.40;60.70;;;;;;5052687;28;20434;-59
2022/05/02 13:23:00;;;;;;;2.43;1.73;;;20.40;60.90;;;;;;5052195;28;20210;-58
2022/05/02 13:25:53;;;;;;;1.60;1.50;;;20.30;61.30;;;;;;5052144;28;20211;-58
2022/05/02 13:28:25;;;;;;;4.43;1.90;;;20.40;61.90;;;;;;5052459;28;20601;-59
2022/05/02 13:30:56;;;;;;;2.83;1.83;;;20.40;61.70;;;;;;5052352;28;20698;-58
2022/05/02 13:33:36;;;;;;;5.20;2.37;;;20.30;61.80;;;;;;5052420;28;20191;-59
2022/05/02 13:36:05;;;;;;;4.30;1.60;;;20.30;63.10;;;;;;5052139;28;20203;-59
2022/05/02 13:38:43;;;;;;;4.83;2.30;;;20.30;62.60;;;;;;5052486;28;20233;-59
2022/05/02 13:41:21;;;;;;;3.67;2.43;;;20.20;61.10;;;;;;5051836;28;20236;-59
2022/05/02 13:44:03;;;;;;;2.20;1.70;;;20.10;61.70;;;;;;5052224;28;20189;-58
2022/05/02 13:46:41;;;;;;;5.97;2.97;;;20.10;62.10;;;;;;5052151;28;20562;-60
2022/05/02 13:49:18;;;;;;;4.30;2.23;;;20.10;62.30;;;;;;5051790;28;20197;-59
2022/05/02 13:51:54;;;;;;;3.43;2.43;;;20.10;62.80;;;;;;5051668;28;20200;-58
2022/05/02 13:54:27;;;;;;;2.57;1.97;;;20.20;62.40;;;;;;5052008;28;20640;-57
2022/05/02 13:57:05;;;;;;;2.87;2.07;;;20.30;62.40;;;;;;5051861;28;20201;-59
2022/05/02 13:59:40;;;;;;;2.60;1.70;;;20.30;62.40;;;;;;5051893;28;20214;-58